createdAt,value
2023-04-15T00:01:01.346Z,100303.44
2023-04-15T00:03:28.735Z,100295.09
2023-04-15T00:05:55.712Z,100289.00
2023-04-15T00:08:22.487Z,100288.66
2023-04-15T00:10:49.594Z,100288.91
2023-04-15T00:13:16.640Z,100284.78
2023-04-15T00:15:43.528Z,100299.63
2023-04-15T00:18:10.512Z,100295.53
2023-04-15T00:20:37.735Z,100288.09
2023-04-15T00:23:05.705Z,100291.97
2023-04-15T00:25:33.240Z,100300.97
2023-04-15T00:27:59.958Z,100289.81
2023-04-15T00:30:26.901Z,100296.34
2023-04-15T00:32:53.714Z,100291.22
2023-04-15T00:35:22.659Z,100288.94
2023-04-15T00:37:51.475Z,100287.72
2023-04-15T00:40:20.148Z,100290.56
2023-04-15T00:42:46.922Z,100290.72
2023-04-15T00:45:14.405Z,100288.25
2023-04-15T00:47:45.351Z,100296.34
2023-04-15T00:50:13.254Z,100291.78
2023-04-15T00:52:41.159Z,100291.63
2023-04-15T00:55:08.951Z,100297.22
2023-04-15T00:57:36.469Z,100290.09
2023-04-15T01:00:05.690Z,100285.03
2023-04-15T01:02:33.542Z,100286.81
2023-04-15T01:05:04.095Z,100287.00
2023-04-15T01:07:32.269Z,100287.75
2023-04-15T01:09:59.086Z,100282.53
2023-04-15T01:12:27.136Z,100294.50
2023-04-15T01:14:55.359Z,100281.03
2023-04-15T01:17:22.284Z,100288.28
2023-04-15T01:19:49.246Z,100274.59
2023-04-15T01:22:16.527Z,100277.19
2023-04-15T01:24:55.614Z,100278.56
2023-04-15T01:27:22.718Z,100282.34
2023-04-15T01:29:49.420Z,100273.22
2023-04-15T01:32:16.533Z,100279.66
2023-04-15T01:34:44.122Z,100275.09
2023-04-15T01:37:11.202Z,100269.69
2023-04-15T01:39:37.882Z,100280.09
2023-04-15T01:42:04.572Z,100277.31
2023-04-15T01:44:31.679Z,100286.50
2023-04-15T01:46:59.320Z,100278.44
2023-04-15T01:49:27.640Z,100281.16
2023-04-15T01:51:54.952Z,100289.94
2023-04-15T01:54:21.606Z,100284.84
2023-04-15T01:56:48.439Z,100292.28
2023-04-15T01:59:15.242Z,100279.63
2023-04-15T02:01:42.191Z,100272.25
2023-04-15T02:04:16.716Z,100286.44
2023-04-15T02:06:43.977Z,100289.84
2023-04-15T02:09:12.389Z,100280.66
2023-04-15T02:11:39.328Z,100277.22
2023-04-15T02:14:06.583Z,100286.16
2023-04-15T02:16:33.956Z,100289.41
2023-04-15T02:19:01.387Z,100287.41
2023-04-15T02:21:28.556Z,100281.25
2023-04-15T02:23:55.991Z,100289.38
2023-04-15T02:26:23.116Z,100294.44
2023-04-15T02:28:51.434Z,100304.22
2023-04-15T02:31:18.186Z,100300.34
2023-04-15T02:33:45.354Z,100305.22
2023-04-15T02:36:12.544Z,100307.25
2023-04-15T02:38:41.338Z,100321.19
2023-04-15T02:41:11.668Z,100309.97
2023-04-15T02:43:40.153Z,100321.91
2023-04-15T02:46:07.881Z,100309.25
2023-04-15T02:48:34.729Z,100311.13
2023-04-15T02:51:22.780Z,100311.88
2023-04-15T02:53:50.853Z,100317.44
2023-04-15T02:56:19.434Z,100329.75
2023-04-15T02:58:46.797Z,100331.06
2023-04-15T03:01:13.711Z,100328.03
2023-04-15T03:03:41.644Z,100336.94
2023-04-15T03:06:09.469Z,100340.69
2023-04-15T03:08:37.068Z,100353.81
2023-04-15T03:11:04.565Z,100350.84
2023-04-15T03:13:32.576Z,100338.78
2023-04-15T03:16:03.485Z,100341.31
2023-04-15T03:18:32.066Z,100342.84
2023-04-15T03:21:02.703Z,100356.25
2023-04-15T03:23:32.257Z,100356.81
2023-04-15T03:26:02.592Z,100341.53
2023-04-15T03:28:31.384Z,100347.72
2023-04-15T03:30:59.243Z,100351.34
2023-04-15T03:33:26.146Z,100358.84
2023-04-15T03:35:53.577Z,100364.41
2023-04-15T03:38:20.659Z,100366.09
2023-04-15T03:40:47.480Z,100371.56
2023-04-15T03:43:14.450Z,100363.63
2023-04-15T03:45:42.832Z,100367.69
2023-04-15T03:48:17.384Z,100371.09
2023-04-15T03:50:45.253Z,100362.19
2023-04-15T03:53:12.151Z,100374.47
2023-04-15T03:55:38.790Z,100362.03
2023-04-15T03:58:05.622Z,100359.94
2023-04-15T04:00:32.486Z,100364.34
2023-04-15T04:02:59.373Z,100374.31
2023-04-15T04:05:26.409Z,100375.56
2023-04-15T04:07:53.106Z,100368.66
2023-04-15T04:10:19.956Z,100376.44
2023-04-15T04:12:46.749Z,100369.97
2023-04-15T04:15:13.821Z,100372.38
2023-04-15T04:17:41.155Z,100368.97
2023-04-15T04:20:08.519Z,100374.50
2023-04-15T04:22:41.824Z,100381.69
2023-04-15T04:25:10.253Z,100389.31
2023-04-15T04:27:37.427Z,100396.81
2023-04-15T04:30:05.387Z,100381.94
2023-04-15T04:32:32.388Z,100385.00
2023-04-15T04:34:59.191Z,100406.84
2023-04-15T04:37:25.882Z,100400.44
2023-04-15T04:39:52.569Z,100416.16
2023-04-15T04:42:19.288Z,100412.16
2023-04-15T04:44:46.416Z,100417.88
2023-04-15T04:47:13.205Z,100423.63
2023-04-15T04:49:40.103Z,100427.50
2023-04-15T04:52:07.263Z,100430.88
2023-04-15T04:54:33.909Z,100427.84
2023-04-15T04:57:00.892Z,100443.59
2023-04-15T04:59:28.359Z,100442.59
2023-04-15T05:01:55.143Z,100444.88
2023-04-15T05:04:22.069Z,100445.16
2023-04-15T05:06:49.447Z,100453.00
2023-04-15T05:09:16.436Z,100461.19
2023-04-15T05:11:43.235Z,100462.63
2023-04-15T05:14:10.099Z,100454.69
2023-04-15T05:16:37.086Z,100457.47
2023-04-15T05:19:04.003Z,100468.97
2023-04-15T05:21:31.742Z,100474.34
2023-04-15T05:23:58.479Z,100472.06
2023-04-15T05:26:25.301Z,100490.66
2023-04-15T05:28:52.105Z,100488.72
2023-04-15T05:31:18.963Z,100497.22
2023-04-15T05:33:45.794Z,100506.88
2023-04-15T05:36:12.837Z,100502.56
2023-04-15T05:38:39.607Z,100511.97
2023-04-15T05:41:06.722Z,100512.75
2023-04-15T05:43:33.544Z,100515.66
2023-04-15T05:46:00.360Z,100517.06
2023-04-15T05:48:27.206Z,100527.16
2023-04-15T05:50:53.986Z,100523.19
2023-04-15T05:53:20.784Z,100531.47
2023-04-15T05:55:47.519Z,100544.16
2023-04-15T05:58:14.407Z,100541.59
2023-04-15T06:00:41.173Z,100544.16
2023-04-15T06:03:07.994Z,100537.94
2023-04-15T06:05:34.949Z,100543.25
2023-04-15T06:08:02.010Z,100544.56
2023-04-15T06:10:29.011Z,100555.84
2023-04-15T06:12:56.248Z,100560.91
2023-04-15T06:15:23.340Z,100560.47
2023-04-15T06:17:50.092Z,100569.56
2023-04-15T06:20:16.898Z,100576.69
2023-04-15T06:22:43.591Z,100576.91
2023-04-15T06:25:11.513Z,100588.81
2023-04-15T06:27:38.200Z,100588.94
2023-04-15T06:30:05.635Z,100591.75
2023-04-15T06:32:32.874Z,100588.16
2023-04-15T06:34:59.811Z,100580.91
2023-04-15T06:37:26.432Z,100581.94
2023-04-15T06:39:53.319Z,100576.81
2023-04-15T06:42:20.060Z,100587.47
2023-04-15T06:44:47.052Z,100590.38
2023-04-15T06:47:14.838Z,100592.78
2023-04-15T06:49:43.179Z,100588.88
2023-04-15T06:52:10.987Z,100590.09
2023-04-15T06:54:37.770Z,100599.97
2023-04-15T06:57:04.510Z,100594.78
2023-04-15T06:59:31.212Z,100614.00
2023-04-15T07:01:57.965Z,100611.03
2023-04-15T07:04:24.749Z,100621.81
2023-04-15T07:06:52.160Z,100619.84
2023-04-15T07:09:18.912Z,100619.16
2023-04-15T07:11:45.677Z,100627.53
2023-04-15T07:14:12.405Z,100628.59
2023-04-15T07:16:39.112Z,100641.41
2023-04-15T07:19:05.965Z,100644.88
2023-04-15T07:21:32.591Z,100641.94
2023-04-15T07:23:59.467Z,100643.94
2023-04-15T07:26:26.400Z,100646.25
2023-04-15T07:28:53.173Z,100648.78
2023-04-15T07:31:19.930Z,100656.09
2023-04-15T07:33:46.875Z,100661.16
2023-04-15T07:36:14.096Z,100664.44
2023-04-15T07:38:40.918Z,100672.09
2023-04-15T07:41:07.708Z,100674.19
2023-04-15T07:43:34.536Z,100666.50
2023-04-15T07:46:02.142Z,100679.63
2023-04-15T07:48:28.897Z,100678.75
2023-04-15T07:50:55.619Z,100686.28
2023-04-15T07:53:22.356Z,100680.38
2023-04-15T07:55:49.181Z,100683.00
2023-04-15T07:58:15.972Z,100683.81
2023-04-15T08:00:44.783Z,100684.97
2023-04-15T08:03:11.912Z,100693.38
2023-04-15T08:05:38.726Z,100693.94
2023-04-15T08:08:05.454Z,100697.38
2023-04-15T08:10:32.535Z,100699.84
2023-04-15T08:12:59.323Z,100708.56
2023-04-15T08:15:26.626Z,100699.75
2023-04-15T08:17:53.444Z,100715.00
2023-04-15T08:20:20.676Z,100716.22
2023-04-15T08:22:51.926Z,100716.84
2023-04-15T08:25:19.946Z,100709.28
2023-04-15T08:27:46.738Z,100721.59
2023-04-15T08:30:14.137Z,100724.28
2023-04-15T08:32:42.727Z,100731.81
2023-04-15T08:35:10.459Z,100742.22
2023-04-15T08:37:37.304Z,100746.53
2023-04-15T08:40:05.035Z,100750.81
2023-04-15T08:42:35.129Z,100741.19
2023-04-15T08:45:07.155Z,100753.66
2023-04-15T08:47:34.915Z,100757.91
2023-04-15T08:50:04.497Z,100767.09
2023-04-15T08:52:32.279Z,100771.13
2023-04-15T08:55:00.450Z,100774.91
2023-04-15T08:57:28.414Z,100776.34
2023-04-15T08:59:58.560Z,100779.28
2023-04-15T09:02:28.616Z,100802.69
2023-04-15T09:04:55.499Z,100799.00
2023-04-15T09:07:22.368Z,100796.22
2023-04-15T09:09:49.472Z,100801.81
2023-04-15T09:12:17.290Z,100800.72
2023-04-15T09:14:47.541Z,100803.03
2023-04-15T09:17:19.729Z,100817.88
2023-04-15T09:19:46.710Z,100816.34
2023-04-15T09:22:13.835Z,100820.78
2023-04-15T09:24:42.253Z,100827.81
2023-04-15T09:27:08.978Z,100825.56
2023-04-15T09:29:37.278Z,100833.47
2023-04-15T09:32:14.371Z,100839.13
2023-04-15T09:34:41.225Z,100841.13
2023-04-15T09:37:09.181Z,100845.56
2023-04-15T09:39:47.200Z,100855.41
2023-04-15T09:42:14.141Z,100856.88
2023-04-15T09:44:40.855Z,100854.94
2023-04-15T09:47:07.696Z,100862.84
2023-04-15T09:49:34.466Z,100866.25
2023-04-15T09:52:06.082Z,100871.25
2023-04-15T09:54:37.987Z,100869.34
2023-04-15T09:57:10.864Z,100884.81
2023-04-15T09:59:37.783Z,100880.19
2023-04-15T10:02:06.413Z,100882.50
2023-04-15T10:04:36.587Z,100877.47
2023-04-15T10:07:06.167Z,100896.16
2023-04-15T10:09:34.211Z,100898.00
2023-04-15T10:12:01.260Z,100904.28
2023-04-15T10:14:29.275Z,100900.59
2023-04-15T10:16:56.590Z,100917.72
2023-04-15T10:19:26.027Z,100906.41
2023-04-15T10:21:52.861Z,100905.66
2023-04-15T10:24:20.229Z,100922.13
2023-04-15T10:26:47.901Z,100914.56
2023-04-15T10:29:14.926Z,100909.59
2023-04-15T10:31:42.167Z,100919.50
2023-04-15T10:34:09.080Z,100922.75
2023-04-15T10:36:35.872Z,100921.28
2023-04-15T10:39:02.860Z,100926.50
2023-04-15T10:41:34.360Z,100929.44
2023-04-15T10:44:03.300Z,100934.31
2023-04-15T10:46:40.515Z,100937.19
2023-04-15T10:49:11.370Z,100940.59
2023-04-15T10:51:43.132Z,100948.00
2023-04-15T10:54:25.944Z,100937.59
2023-04-15T10:57:07.716Z,100955.72
2023-04-15T11:00:00.368Z,100956.16
2023-04-15T11:02:49.121Z,100953.06
2023-04-15T11:05:17.749Z,100956.13
2023-04-15T11:07:44.656Z,100959.38
2023-04-15T11:10:14.457Z,100954.50
2023-04-15T11:12:41.966Z,100958.13
2023-04-15T11:15:40.976Z,100962.50
2023-04-15T11:18:28.688Z,100963.91
2023-04-15T11:21:01.303Z,100972.66
2023-04-15T11:23:35.876Z,100969.38
2023-04-15T11:26:05.615Z,100981.66
2023-04-15T11:28:32.948Z,100978.56
2023-04-15T11:31:06.804Z,100978.13
2023-04-15T11:33:34.045Z,100977.94
2023-04-15T11:36:01.541Z,100982.91
2023-04-15T11:38:28.528Z,100976.69
2023-04-15T11:40:55.536Z,100982.81
2023-04-15T11:43:23.289Z,100991.59
2023-04-15T11:45:58.598Z,100989.84
2023-04-15T11:48:33.778Z,100991.56
2023-04-15T11:51:02.232Z,100995.06
2023-04-15T11:53:46.286Z,100995.69
2023-04-15T11:56:21.096Z,101000.81
2023-04-15T11:58:50.769Z,101005.91
2023-04-15T12:01:18.664Z,101002.16
2023-04-15T12:03:47.293Z,101001.53
2023-04-15T12:06:17.709Z,101019.00
2023-04-15T12:09:00.428Z,101019.19
2023-04-15T12:11:27.175Z,101024.59
2023-04-15T12:13:56.690Z,101020.22
2023-04-15T12:16:24.446Z,101037.25
2023-04-15T12:18:56.575Z,101037.25
2023-04-15T12:21:24.175Z,101041.25
2023-04-15T12:23:55.197Z,101034.06
2023-04-15T12:26:31.393Z,101043.78
2023-04-15T12:29:02.405Z,101055.19
2023-04-15T12:31:29.396Z,101055.56
2023-04-15T12:33:57.422Z,101055.34
2023-04-15T12:36:25.119Z,101054.84
2023-04-15T12:38:52.158Z,101055.13
2023-04-15T12:41:20.633Z,101060.72
2023-04-15T12:43:47.578Z,101069.03
2023-04-15T12:46:16.060Z,101060.59
2023-04-15T12:48:42.958Z,101076.91
2023-04-15T12:51:09.625Z,101088.38
2023-04-15T12:53:37.288Z,101082.63
2023-04-15T12:56:04.129Z,101094.22
2023-04-15T12:58:30.824Z,101088.50
2023-04-15T13:00:57.597Z,101091.91
2023-04-15T13:03:24.475Z,101096.38
2023-04-15T13:05:52.635Z,101095.34
2023-04-15T13:08:19.410Z,101090.66
2023-04-15T13:10:46.400Z,101093.84
2023-04-15T13:13:13.125Z,101095.06
2023-04-15T13:15:40.403Z,101099.13
2023-04-15T13:18:07.575Z,101102.75
2023-04-15T13:20:34.269Z,101095.69
2023-04-15T13:23:01.463Z,101102.41
2023-04-15T13:25:28.251Z,101115.31
2023-04-15T13:27:55.159Z,101114.69
2023-04-15T13:30:21.974Z,101107.94
2023-04-15T13:32:50.682Z,101114.88
2023-04-15T13:35:17.978Z,101118.47
2023-04-15T13:37:44.737Z,101117.25
2023-04-15T13:40:11.894Z,101126.28
2023-04-15T13:42:39.034Z,101133.69
2023-04-15T13:45:07.473Z,101137.31
2023-04-15T13:47:34.584Z,101132.06
2023-04-15T13:50:01.357Z,101140.22
2023-04-15T13:52:28.138Z,101140.94
2023-04-15T13:55:19.714Z,101136.94
2023-04-15T13:57:42.142Z,101136.25
2023-04-15T14:00:09.638Z,101148.97
2023-04-15T14:02:36.867Z,101148.72
2023-04-15T14:05:03.738Z,101160.25
2023-04-15T14:07:30.907Z,101162.41
2023-04-15T14:09:57.759Z,101159.22
2023-04-15T14:12:24.451Z,101165.84
2023-04-15T14:14:51.325Z,101164.19
2023-04-15T14:17:18.136Z,101167.06
2023-04-15T14:19:44.833Z,101170.00
2023-04-15T14:22:11.536Z,101171.75
2023-04-15T14:24:38.449Z,101196.34
2023-04-15T14:27:05.448Z,101198.13
2023-04-15T14:29:32.232Z,101195.34
2023-04-15T14:32:04.553Z,101197.56
2023-04-15T14:34:38.522Z,101195.59
2023-04-15T14:37:05.249Z,101209.22
2023-04-15T14:39:32.296Z,101213.97
2023-04-15T14:41:59.159Z,101209.94
2023-04-15T14:44:26.057Z,101219.19
2023-04-15T14:46:53.033Z,101229.06
2023-04-15T14:49:19.913Z,101236.72
2023-04-15T14:51:46.678Z,101233.63
2023-04-15T14:54:13.651Z,101234.53
2023-04-15T14:56:40.334Z,101241.25
2023-04-15T14:59:07.439Z,101242.50
2023-04-15T15:01:34.657Z,101240.31
2023-04-15T15:04:01.467Z,101251.00
2023-04-15T15:06:29.110Z,101248.06
2023-04-15T15:08:55.971Z,101254.41
2023-04-15T15:11:22.715Z,101260.91
2023-04-15T15:13:49.551Z,101257.06
2023-04-15T15:16:16.336Z,101269.25
2023-04-15T15:18:43.109Z,101259.34
2023-04-15T15:21:11.107Z,101272.47
2023-04-15T15:23:37.801Z,101267.88
2023-04-15T15:26:05.207Z,101276.25
2023-04-15T15:28:31.854Z,101275.59
2023-04-15T15:30:58.746Z,101284.84
2023-04-15T15:33:25.698Z,101295.78
2023-04-15T15:35:52.716Z,101296.00
2023-04-15T15:38:19.502Z,101301.13
2023-04-15T15:40:46.324Z,101303.53
2023-04-15T15:43:13.059Z,101295.78
2023-04-15T15:45:40.963Z,101305.13
2023-04-15T15:48:07.811Z,101306.59
2023-04-15T15:50:34.849Z,101301.69
2023-04-15T15:53:01.571Z,101307.19
2023-04-15T15:55:28.511Z,101306.47
2023-04-15T15:57:55.277Z,101306.72
2023-04-15T16:00:23.247Z,101317.06
2023-04-15T16:03:05.691Z,101324.47
2023-04-15T16:05:33.376Z,101331.34
2023-04-15T16:08:00.188Z,101324.75
2023-04-15T16:10:27.054Z,101353.34
2023-04-15T16:12:54.382Z,101349.34
2023-04-15T16:15:22.100Z,101343.88
2023-04-15T16:17:48.836Z,101346.06
2023-04-15T16:20:15.742Z,101346.84
2023-04-15T16:22:42.495Z,101352.09
2023-04-15T16:25:10.631Z,101355.81
2023-04-15T16:27:50.260Z,101356.41
2023-04-15T16:30:24.971Z,101360.97
2023-04-15T16:32:51.857Z,101368.06
2023-04-15T16:35:18.670Z,101377.66
2023-04-15T16:37:45.328Z,101371.16
2023-04-15T16:40:12.639Z,101388.81
2023-04-15T16:42:39.881Z,101393.19
2023-04-15T16:45:07.112Z,101385.94
2023-04-15T16:47:33.854Z,101392.78
2023-04-15T16:50:00.836Z,101402.44
2023-04-15T16:52:29.182Z,101403.47
2023-04-15T16:54:56.129Z,101400.78
2023-04-15T16:57:22.840Z,101404.69
2023-04-15T16:59:51.747Z,101402.44
2023-04-15T17:02:18.661Z,101405.84
2023-04-15T17:04:45.547Z,101408.81
2023-04-15T17:07:13.026Z,101410.13
2023-04-15T17:09:40.400Z,101416.06
2023-04-15T17:12:07.475Z,101414.50
2023-04-15T17:14:35.093Z,101428.53
2023-04-15T17:17:02.039Z,101425.28
2023-04-15T17:19:28.919Z,101422.03
2023-04-15T17:21:56.316Z,101436.66
2023-04-15T17:24:23.447Z,101435.63
2023-04-15T17:26:50.217Z,101435.84
2023-04-15T17:29:17.075Z,101442.00
2023-04-15T17:31:43.863Z,101437.69
2023-04-15T17:34:12.122Z,101437.47
2023-04-15T17:36:40.060Z,101453.28
2023-04-15T17:39:07.231Z,101447.94
2023-04-15T17:41:34.169Z,101445.28
2023-04-15T17:44:01.010Z,101447.53
2023-04-15T17:46:28.595Z,101453.47
2023-04-15T17:48:55.285Z,101451.16
2023-04-15T17:51:22.027Z,101454.28
2023-04-15T17:53:48.846Z,101471.16
2023-04-15T17:56:15.767Z,101464.66
2023-04-15T17:58:43.370Z,101467.38
2023-04-15T18:01:10.026Z,101475.63
2023-04-15T18:03:36.908Z,101488.44
2023-04-15T18:06:03.976Z,101485.75
2023-04-15T18:08:31.431Z,101494.31
2023-04-15T18:10:58.104Z,101490.88
2023-04-15T18:13:24.849Z,101481.56
2023-04-15T18:15:51.604Z,101493.78
2023-04-15T18:18:18.481Z,101505.56
2023-04-15T18:20:45.426Z,101509.69
2023-04-15T18:23:12.370Z,101519.56
2023-04-15T18:25:39.219Z,101518.78
2023-04-15T18:28:06.147Z,101521.53
2023-04-15T18:30:32.940Z,101532.34
2023-04-15T18:32:59.726Z,101526.06
2023-04-15T18:35:26.578Z,101535.69
2023-04-15T18:37:53.313Z,101542.19
2023-04-15T18:40:20.189Z,101545.41
2023-04-15T18:42:46.972Z,101548.94
2023-04-15T18:45:13.771Z,101560.66
2023-04-15T18:47:40.774Z,101566.56
2023-04-15T18:50:08.165Z,101578.16
2023-04-15T18:52:35.008Z,101576.66
2023-04-15T18:55:03.366Z,101584.53
2023-04-15T18:57:35.157Z,101586.63
2023-04-15T19:00:03.769Z,101592.88
2023-04-15T19:02:31.578Z,101592.41
2023-04-15T19:04:59.020Z,101593.03
2023-04-15T19:07:25.889Z,101598.81
2023-04-15T19:09:53.311Z,101603.47
2023-04-15T19:12:20.080Z,101613.09
2023-04-15T19:14:46.775Z,101616.78
2023-04-15T19:17:13.536Z,101623.38
2023-04-15T19:19:40.306Z,101621.91
2023-04-15T19:22:07.418Z,101624.63
2023-04-15T19:24:34.233Z,101625.34
2023-04-15T19:27:01.746Z,101639.88
2023-04-15T19:29:28.826Z,101636.81
2023-04-15T19:31:56.360Z,101636.81
2023-04-15T19:34:23.138Z,101642.44
2023-04-15T19:36:49.836Z,101646.47
2023-04-15T19:39:16.713Z,101645.66
2023-04-15T19:41:44.353Z,101646.44
2023-04-15T19:44:13.078Z,101658.94
2023-04-15T19:46:44.910Z,101659.91
2023-04-15T19:49:11.689Z,101660.41
2023-04-15T19:51:38.374Z,101663.59
2023-04-15T19:54:05.146Z,101666.09
2023-04-15T19:56:34.258Z,101670.41
2023-04-15T19:59:02.069Z,101669.50
2023-04-15T20:01:29.111Z,101670.72
2023-04-15T20:03:56.178Z,101680.13
2023-04-15T20:06:23.329Z,101686.34
2023-04-15T20:08:50.054Z,101682.66
2023-04-15T20:11:17.049Z,101685.13
2023-04-15T20:13:43.787Z,101685.44
2023-04-15T20:16:11.773Z,101696.31
2023-04-15T20:18:38.558Z,101690.66
2023-04-15T20:21:05.565Z,101696.19
2023-04-15T20:23:32.381Z,101699.63
2023-04-15T20:25:59.894Z,101707.94
2023-04-15T20:28:27.523Z,101695.56
2023-04-15T20:30:54.330Z,101702.88
2023-04-15T20:33:22.216Z,101709.41
2023-04-15T20:35:49.033Z,101712.25
2023-04-15T20:38:16.364Z,101711.78
2023-04-15T20:40:43.702Z,101712.81
2023-04-15T20:43:10.549Z,101714.19
2023-04-15T20:45:38.473Z,101720.25
2023-04-15T20:48:05.719Z,101731.28
2023-04-15T20:50:32.423Z,101727.97
2023-04-15T20:52:59.238Z,101728.38
2023-04-15T20:55:26.037Z,101735.25
2023-04-15T20:57:52.778Z,101736.38
2023-04-15T21:00:19.584Z,101743.38
2023-04-15T21:02:49.146Z,101733.16
2023-04-15T21:05:17.531Z,101739.38
2023-04-15T21:07:44.346Z,101744.56
2023-04-15T21:10:11.251Z,101738.47
2023-04-15T21:12:40.766Z,101750.72
2023-04-15T21:15:08.542Z,101750.00
2023-04-15T21:17:35.620Z,101750.84
2023-04-15T21:20:02.530Z,101755.16
2023-04-15T21:22:29.329Z,101756.25
2023-04-15T21:24:56.107Z,101765.72
2023-04-15T21:27:22.860Z,101759.00
2023-04-15T21:29:49.631Z,101760.97
2023-04-15T21:32:16.660Z,101763.97
2023-04-15T21:34:43.899Z,101768.94
2023-04-15T21:37:10.640Z,101768.81
2023-04-15T21:39:37.331Z,101771.75
2023-04-15T21:42:04.144Z,101769.53
2023-04-15T21:44:32.705Z,101772.56
2023-04-15T21:47:00.442Z,101776.25
2023-04-15T21:49:27.382Z,101778.59
2023-04-15T21:51:54.012Z,101785.94
2023-04-15T21:54:20.772Z,101783.81
2023-04-15T21:56:49.772Z,101790.75
2023-04-15T21:59:16.485Z,101797.59
2023-04-15T22:01:43.256Z,101804.34
2023-04-15T22:04:11.189Z,101800.75
2023-04-15T22:06:38.280Z,101806.06
2023-04-15T22:09:05.049Z,101812.28
2023-04-15T22:11:32.374Z,101808.28
2023-04-15T22:13:59.514Z,101801.75
2023-04-15T22:16:26.750Z,101805.13
2023-04-15T22:18:54.343Z,101810.41
2023-04-15T22:21:21.282Z,101811.16
2023-04-15T22:23:48.702Z,101810.78
2023-04-15T22:26:16.303Z,101819.25
2023-04-15T22:28:43.032Z,101833.22
2023-04-15T22:31:10.154Z,101825.25
2023-04-15T22:33:37.043Z,101831.94
2023-04-15T22:36:03.893Z,101827.50
2023-04-15T22:38:30.931Z,101839.34
2023-04-15T22:40:58.504Z,101837.47
2023-04-15T22:43:25.966Z,101838.72
2023-04-15T22:45:55.325Z,101836.81
2023-04-15T22:48:22.884Z,101844.72
2023-04-15T22:50:49.961Z,101843.16
2023-04-15T22:53:20.143Z,101846.28
2023-04-15T22:55:48.175Z,101851.59
2023-04-15T22:58:15.898Z,101854.00
2023-04-15T23:00:42.661Z,101861.06
2023-04-15T23:03:09.622Z,101867.13
2023-04-15T23:05:37.358Z,101865.09
2023-04-15T23:08:04.128Z,101867.38
2023-04-15T23:10:30.866Z,101863.06
2023-04-15T23:12:57.578Z,101864.19
2023-04-15T23:15:24.564Z,101863.22
2023-04-15T23:17:51.439Z,101860.66
2023-04-15T23:20:18.396Z,101862.34
2023-04-15T23:22:45.761Z,101866.72
2023-04-15T23:25:12.388Z,101864.53
2023-04-15T23:27:39.247Z,101864.41
2023-04-15T23:30:06.790Z,101874.41
2023-04-15T23:32:33.610Z,101868.19
2023-04-15T23:35:00.397Z,101873.41
2023-04-15T23:37:27.853Z,101875.47
2023-04-15T23:39:55.758Z,101863.28
2023-04-15T23:42:23.233Z,101869.81
2023-04-15T23:44:50.908Z,101870.03
2023-04-15T23:47:17.683Z,101873.34
2023-04-15T23:49:44.476Z,101870.69
2023-04-15T23:52:11.650Z,101868.16
2023-04-15T23:54:38.292Z,101868.69
2023-04-15T23:57:05.040Z,101866.25
2023-04-15T23:59:31.769Z,101876.28
